Time;durP1;ratioP1;P1;durP2;ratioP2;P2;SDS_P1;SDS_P2;PMS_P1;PMS_P2;Temp;Humidity;BMP_temperature;BMP_pressure;BME280_temperature;BME280_humidity;BME280_pressure;Samples;Min_cycle;Max_cycle;Signal;HPM_P1;HPM_P2
2023/04/16 00:03:21;;;;;;;;;;;20.10;34.60;;;;;;8400100;28;19964;-44
2023/04/16 00:07:22;;;;;;;;;;;20.00;34.60;;;;;;8400546;28;19912;-45
2023/04/16 00:11:22;;;;;;;;;;;20.00;34.60;;;;;;8400454;28;19924;-44
2023/04/16 00:15:23;;;;;;;;;;;20.00;34.60;;;;;;8400171;28;19955;-44
2023/04/16 00:19:23;;;;;;;;;;;20.00;34.70;;;;;;8400423;28;19917;-44
2023/04/16 00:23:24;;;;;;;;;;;20.00;34.70;;;;;;8399822;28;19952;-44
2023/04/16 00:27:24;;;;;;;;;;;20.00;34.70;;;;;;8399270;28;19924;-43
2023/04/16 00:31:26;;;;;;;;;;;20.00;34.80;;;;;;8400276;28;19963;-43
2023/04/16 00:35:26;;;;;;;;;;;19.90;34.70;;;;;;8399414;28;19928;-44
2023/04/16 00:39:27;;;;;;;;;;;19.90;34.70;;;;;;8398392;28;19916;-43
2023/04/16 00:43:27;;;;;;;;;;;20.00;34.70;;;;;;8399246;28;19917;-44
2023/04/16 00:47:28;;;;;;;;;;;19.90;34.70;;;;;;8399440;28;19917;-44
2023/04/16 00:51:29;;;;;;;;;;;19.90;34.70;;;;;;8398864;28;19924;-44
2023/04/16 00:55:30;;;;;;;;;;;19.90;34.70;;;;;;8399086;28;20348;-45
2023/04/16 00:59:31;;;;;;;;;;;19.90;34.80;;;;;;8398873;28;19919;-44
2023/04/16 01:03:43;;;;;;;;;;;19.80;34.70;;;;;;8398674;28;19920;-44
2023/04/16 01:07:43;;;;;;;;;;;19.80;34.80;;;;;;8396720;28;20304;-44
2023/04/16 01:11:43;;;;;;;;;;;19.90;34.80;;;;;;8398174;28;19969;-45
2023/04/16 01:15:44;;;;;;;;;;;19.80;34.80;;;;;;8398476;28;19970;-45
2023/04/16 01:19:44;;;;;;;;;;;19.80;34.80;;;;;;8398131;28;19912;-44
2023/04/16 01:23:45;;;;;;;;;;;19.80;34.80;;;;;;8397506;28;19916;-45
2023/04/16 01:27:48;;;;;;;;;;;19.80;34.80;;;;;;8398138;28;19916;-44
2023/04/16 01:31:48;;;;;;;;;;;19.80;34.80;;;;;;8397912;28;20012;-45
2023/04/16 01:35:49;;;;;;;;;;;19.80;34.80;;;;;;8397078;28;19921;-44
2023/04/16 01:39:49;;;;;;;;;;;19.80;34.90;;;;;;8397731;28;19956;-43
2023/04/16 01:43:50;;;;;;;;;;;19.80;34.80;;;;;;8397586;28;19919;-44
2023/04/16 01:47:50;;;;;;;;;;;19.70;34.80;;;;;;8397007;28;19916;-44
2023/04/16 01:51:51;;;;;;;;;;;19.80;34.80;;;;;;8396522;28;20289;-44
2023/04/16 01:55:52;;;;;;;;;;;19.70;34.90;;;;;;8397233;28;20290;-44
2023/04/16 01:59:52;;;;;;;;;;;19.80;34.80;;;;;;8396516;28;19912;-44
2023/04/16 02:03:53;;;;;;;;;;;19.70;34.80;;;;;;8396763;28;19974;-44
2023/04/16 02:07:53;;;;;;;;;;;19.70;34.80;;;;;;8396689;28;19917;-43
2023/04/16 02:11:54;;;;;;;;;;;19.70;34.90;;;;;;8395960;28;19925;-44
2023/04/16 02:15:54;;;;;;;;;;;19.70;34.90;;;;;;8396486;28;20309;-43
2023/04/16 02:19:55;;;;;;;;;;;19.70;34.90;;;;;;8396158;28;19943;-43
2023/04/16 02:23:56;;;;;;;;;;;19.70;35.00;;;;;;8395658;28;19924;-45
2023/04/16 02:27:56;;;;;;;;;;;19.70;34.90;;;;;;8396292;28;19966;-45
2023/04/16 02:31:58;;;;;;;;;;;19.60;34.90;;;;;;8395877;28;20012;-45
2023/04/16 02:35:58;;;;;;;;;;;19.60;34.90;;;;;;8395151;28;19930;-45
2023/04/16 02:39:59;;;;;;;;;;;19.60;34.90;;;;;;8396002;28;19921;-45
2023/04/16 02:44:00;;;;;;;;;;;19.60;34.90;;;;;;8395776;28;19916;-43
2023/04/16 02:48:00;;;;;;;;;;;19.60;34.90;;;;;;8395418;28;19946;-43
2023/04/16 02:52:01;;;;;;;;;;;19.60;35.00;;;;;;8395807;28;19962;-45
2023/04/16 02:56:01;;;;;;;;;;;19.60;34.90;;;;;;8395710;28;19958;-45
2023/04/16 03:00:03;;;;;;;;;;;19.60;35.00;;;;;;8395369;28;19917;-45
2023/04/16 03:04:04;;;;;;;;;;;19.60;35.00;;;;;;8395082;28;19920;-45
2023/04/16 03:08:05;;;;;;;;;;;19.60;35.00;;;;;;8394389;28;20388;-44
2023/04/16 03:12:05;;;;;;;;;;;19.50;35.00;;;;;;8376979;28;19969;-43
2023/04/16 03:16:06;;;;;;;;;;;19.50;35.00;;;;;;8394970;28;20407;-44
2023/04/16 03:20:08;;;;;;;;;;;19.50;35.20;;;;;;8395324;28;19916;-44
2023/04/16 03:24:08;;;;;;;;;;;19.50;35.20;;;;;;8394464;28;19955;-44
2023/04/16 03:28:08;;;;;;;;;;;19.50;35.20;;;;;;8395348;28;19913;-44
2023/04/16 03:32:11;;;;;;;;;;;19.50;35.30;;;;;;8394964;28;19923;-45
2023/04/16 03:36:11;;;;;;;;;;;19.50;35.20;;;;;;8394226;28;19924;-43
2023/04/16 03:40:12;;;;;;;;;;;19.50;35.20;;;;;;8394965;28;19927;-43
2023/04/16 03:44:12;;;;;;;;;;;19.50;35.20;;;;;;8394790;28;19999;-44
2023/04/16 03:48:13;;;;;;;;;;;19.50;35.20;;;;;;8394624;28;19913;-45
2023/04/16 03:52:14;;;;;;;;;;;19.50;35.20;;;;;;8394743;28;19923;-45
2023/04/16 03:56:15;;;;;;;;;;;19.50;35.60;;;;;;8394245;28;19928;-45
2023/04/16 04:00:15;;;;;;;;;;;19.50;35.20;;;;;;8392819;28;20415;-45
2023/04/16 04:04:16;;;;;;;;;;;19.50;35.30;;;;;;8394417;28;20255;-43
2023/04/16 04:08:16;;;;;;;;;;;19.50;35.20;;;;;;8393725;28;20011;-46
2023/04/16 04:12:16;;;;;;;;;;;19.50;35.20;;;;;;8393793;28;19920;-44
2023/04/16 04:16:17;;;;;;;;;;;19.60;35.00;;;;;;8399395;28;20377;-44
2023/04/16 04:20:17;;;;;;;;;;;19.70;35.00;;;;;;8400026;28;19916;-44
2023/04/16 04:24:18;;;;;;;;;;;19.80;34.80;;;;;;8399407;28;20474;-43
2023/04/16 04:28:18;;;;;;;;;;;19.90;34.80;;;;;;8400231;28;19939;-43
2023/04/16 04:32:18;;;;;;;;;;;20.00;34.80;;;;;;8399653;28;19961;-45
2023/04/16 04:36:19;;;;;;;;;;;20.10;34.70;;;;;;8399131;28;20018;-44
2023/04/16 04:40:19;;;;;;;;;;;20.20;34.70;;;;;;8399609;28;19916;-43
2023/04/16 04:44:20;;;;;;;;;;;20.20;34.70;;;;;;8399230;28;19913;-45
2023/04/16 04:48:25;;;;;;;;;;;20.30;34.70;;;;;;8398924;28;20003;-43
2023/04/16 04:52:25;;;;;;;;;;;20.30;34.70;;;;;;8399020;28;19970;-45
2023/04/16 04:56:25;;;;;;;;;;;20.30;34.70;;;;;;8398750;28;19932;-45
2023/04/16 05:00:26;;;;;;;;;;;20.30;34.70;;;;;;8398462;28;19920;-45
2023/04/16 05:04:26;;;;;;;;;;;20.30;34.60;;;;;;8398647;28;19931;-44
2023/04/16 05:08:28;;;;;;;;;;;20.30;34.60;;;;;;8398227;28;21275;-45
2023/04/16 05:12:29;;;;;;;;;;;20.30;34.60;;;;;;8398000;28;19916;-44
2023/04/16 05:16:29;;;;;;;;;;;20.30;34.60;;;;;;8398331;28;20369;-44
2023/04/16 05:20:30;;;;;;;;;;;20.30;34.60;;;;;;8398180;28;19912;-44
2023/04/16 05:24:30;;;;;;;;;;;20.30;34.70;;;;;;8397475;28;19920;-44
2023/04/16 05:28:31;;;;;;;;;;;20.30;34.70;;;;;;8398215;28;20388;-45
2023/04/16 05:32:31;;;;;;;;;;;20.30;34.60;;;;;;8397753;28;19959;-45
2023/04/16 05:36:31;;;;;;;;;;;20.30;34.70;;;;;;8397194;28;19947;-45
2023/04/16 05:40:32;;;;;;;;;;;20.20;34.70;;;;;;8397546;28;19916;-45
2023/04/16 05:44:32;;;;;;;;;;;20.30;34.70;;;;;;8397288;28;19916;-44
2023/04/16 05:48:33;;;;;;;;;;;20.30;34.80;;;;;;8397017;28;20392;-45
2023/04/16 05:52:33;;;;;;;;;;;20.30;34.80;;;;;;8397028;28;20015;-43
2023/04/16 05:56:34;;;;;;;;;;;20.40;34.80;;;;;;8396918;28;19924;-44
2023/04/16 06:00:34;;;;;;;;;;;20.40;34.80;;;;;;8396370;28;19916;-43
2023/04/16 06:04:36;;;;;;;;;;;20.50;34.80;;;;;;8396991;28;20001;-44
2023/04/16 06:08:36;;;;;;;;;;;20.50;34.70;;;;;;8396504;28;19939;-43
2023/04/16 06:12:36;;;;;;;;;;;20.50;34.70;;;;;;8396272;28;19960;-44
2023/04/16 06:16:37;;;;;;;;;;;20.60;34.70;;;;;;8396444;28;19936;-43
2023/04/16 06:20:37;;;;;;;;;;;20.60;34.70;;;;;;8395762;28;19980;-43
2023/04/16 06:24:38;;;;;;;;;;;20.60;34.70;;;;;;8396192;28;20292;-43
2023/04/16 06:28:38;;;;;;;;;;;20.60;34.70;;;;;;8396272;28;20331;-43
2023/04/16 06:32:39;;;;;;;;;;;20.60;34.70;;;;;;8395555;28;19920;-42
2023/04/16 06:36:39;;;;;;;;;;;20.60;34.70;;;;;;8395188;28;20331;-43
2023/04/16 06:40:40;;;;;;;;;;;20.60;34.60;;;;;;8395627;28;20384;-44
2023/04/16 06:44:40;;;;;;;;;;;20.60;34.70;;;;;;8395499;28;20358;-43
2023/04/16 06:48:41;;;;;;;;;;;20.50;34.80;;;;;;8395527;28;20164;-44
2023/04/16 06:52:41;;;;;;;;;;;20.50;34.80;;;;;;8395662;28;20331;-43
2023/04/16 06:56:42;;;;;;;;;;;20.50;34.90;;;;;;8394833;28;19927;-43
2023/04/16 07:00:42;;;;;;;;;;;20.50;34.90;;;;;;8395310;28;20065;-45
2023/04/16 07:04:43;;;;;;;;;;;20.50;34.80;;;;;;8381059;28;19921;-44
2023/04/16 07:08:43;;;;;;;;;;;20.50;34.80;;;;;;8392614;28;19921;-43
2023/04/16 07:12:44;;;;;;;;;;;20.50;34.90;;;;;;8395037;28;20281;-44
2023/04/16 07:16:44;;;;;;;;;;;20.50;34.90;;;;;;8395131;28;19912;-44
2023/04/16 07:20:44;;;;;;;;;;;20.50;34.80;;;;;;8394634;28;20029;-43
2023/04/16 07:24:45;;;;;;;;;;;20.60;34.80;;;;;;8395211;28;19923;-43
2023/04/16 07:28:45;;;;;;;;;;;20.60;34.70;;;;;;8394923;28;19995;-43
2023/04/16 07:32:46;;;;;;;;;;;20.70;34.70;;;;;;8394472;28;20129;-45
2023/04/16 07:36:46;;;;;;;;;;;20.70;34.70;;;;;;8394710;28;19920;-43
2023/04/16 07:40:46;;;;;;;;;;;20.70;34.70;;;;;;8394682;28;19923;-44
2023/04/16 07:44:47;;;;;;;;;;;20.80;34.70;;;;;;8394426;28;19962;-44
2023/04/16 07:48:47;;;;;;;;;;;20.80;34.70;;;;;;8396393;28;19924;-44
2023/04/16 07:52:48;;;;;;;;;;;20.80;34.60;;;;;;8400682;28;20007;-43
2023/04/16 07:56:48;;;;;;;;;;;20.80;34.70;;;;;;8400201;28;19912;-43
2023/04/16 08:00:49;;;;;;;;;;;20.80;34.70;;;;;;8400761;28;19912;-44
2023/04/16 08:04:49;;;;;;;;;;;20.80;34.80;;;;;;8400785;28;19927;-44
2023/04/16 08:08:49;;;;;;;;;;;20.80;34.80;;;;;;8400061;28;19922;-43
2023/04/16 08:12:50;;;;;;;;;;;20.80;34.80;;;;;;8400507;28;19923;-43
2023/04/16 08:16:51;;;;;;;;;;;20.70;34.80;;;;;;8400002;28;19917;-44
2023/04/16 08:20:51;;;;;;;;;;;20.70;34.80;;;;;;8399667;28;20369;-45
2023/04/16 08:24:51;;;;;;;;;;;20.70;34.90;;;;;;8400415;28;20381;-44
2023/04/16 08:28:52;;;;;;;;;;;20.60;34.90;;;;;;8399743;28;19924;-44
2023/04/16 08:32:52;;;;;;;;;;;20.60;34.90;;;;;;8399061;28;19912;-44
2023/04/16 08:36:53;;;;;;;;;;;20.60;34.90;;;;;;8399961;28;19960;-44
2023/04/16 08:40:54;;;;;;;;;;;20.60;34.90;;;;;;8399503;28;20000;-43
2023/04/16 08:45:06;;;;;;;;;;;20.60;34.90;;;;;;8399215;28;19940;-45
2023/04/16 08:49:07;;;;;;;;;;;20.70;34.90;;;;;;8399264;28;20345;-44
2023/04/16 08:53:09;;;;;;;;;;;20.70;34.90;;;;;;8399165;28;19920;-44
2023/04/16 08:57:11;;;;;;;;;;;20.80;34.80;;;;;;8398765;28;19924;-44
2023/04/16 09:01:11;;;;;;;;;;;20.80;34.70;;;;;;8398605;28;20350;-44
2023/04/16 09:05:15;;;;;;;;;;;20.90;34.70;;;;;;8399230;28;19924;-45
2023/04/16 09:09:19;;;;;;;;;;;20.90;34.70;;;;;;8398150;28;20381;-44
2023/04/16 09:13:22;;;;;;;;;;;20.90;34.60;;;;;;8398463;28;19924;-44
2023/04/16 09:17:22;;;;;;;;;;;20.90;34.60;;;;;;8398463;28;20004;-44
2023/04/16 09:21:23;;;;;;;;;;;21.00;34.70;;;;;;8397606;28;20285;-44
2023/04/16 09:25:24;;;;;;;;;;;21.00;34.70;;;;;;8398180;28;19912;-47
2023/04/16 09:29:35;;;;;;;;;;;21.00;34.80;;;;;;8398042;28;19916;-44
2023/04/16 09:33:35;;;;;;;;;;;21.00;34.70;;;;;;8397327;28;19970;-44
2023/04/16 09:37:36;;;;;;;;;;;21.00;34.70;;;;;;8397509;28;19913;-44
2023/04/16 09:41:38;;;;;;;;;;;21.00;34.70;;;;;;8397020;28;19921;-45
2023/04/16 09:45:51;;;;;;;;;;;20.90;34.70;;;;;;8397382;28;19934;-45
2023/04/16 09:49:57;;;;;;;;;;;20.90;34.80;;;;;;8397307;28;20281;-45
2023/04/16 09:53:58;;;;;;;;;;;20.90;34.80;;;;;;8396630;28;19967;-45
2023/04/16 09:57:59;;;;;;;;;;;20.90;34.90;;;;;;8397079;28;20369;-44
2023/04/16 10:02:00;;;;;;;;;;;20.80;34.90;;;;;;8396845;28;19918;-44
2023/04/16 10:06:06;;;;;;;;;;;20.80;34.90;;;;;;8396573;28;20361;-45
2023/04/16 10:10:07;;;;;;;;;;;20.80;35.00;;;;;;8379258;28;20255;-44
2023/04/16 10:14:07;;;;;;;;;;;20.80;35.00;;;;;;8387002;28;20011;-43
2023/04/16 10:18:08;;;;;;;;;;;20.80;35.00;;;;;;8396646;28;19916;-44
2023/04/16 10:22:08;;;;;;;;;;;20.80;34.90;;;;;;8396394;28;19924;-44
2023/04/16 10:26:09;;;;;;;;;;;20.90;34.90;;;;;;8396627;28;19965;-44
2023/04/16 10:30:10;;;;;;;;;;;20.90;34.90;;;;;;8395772;28;20011;-44
2023/04/16 10:34:10;;;;;;;;;;;20.90;34.90;;;;;;8396151;28;19925;-45
2023/04/16 10:38:24;;;;;;;;;;;20.90;34.90;;;;;;8396362;28;19966;-43
2023/04/16 10:42:26;;;;;;;;;;;20.90;34.80;;;;;;8395510;28;19916;-44
2023/04/16 10:46:33;;;;;;;;;;;20.90;34.80;;;;;;8396213;28;19912;-42
2023/04/16 10:50:36;;;;;;;;;;;20.90;34.80;;;;;;8395946;28;19917;-44
2023/04/16 10:54:37;;;;;;;;;;;20.90;34.80;;;;;;8395052;28;19929;-42
2023/04/16 10:58:38;;;;;;;;;;;20.90;34.70;;;;;;8395548;28;20288;-42
2023/04/16 11:02:39;;;;;;;;;;;21.00;34.80;;;;;;8394885;28;20261;-44
2023/04/16 11:06:39;;;;;;;;;;;21.00;34.80;;;;;;8395611;28;19913;-43
2023/04/16 11:10:40;;;;;;;;;;;21.00;34.70;;;;;;8395631;28;19973;-43
2023/04/16 11:14:41;;;;;;;;;;;21.00;34.70;;;;;;8394525;28;19925;-43
2023/04/16 11:18:43;;;;;;;;;;;21.00;34.70;;;;;;8395126;28;19916;-43
2023/04/16 11:22:44;;;;;;;;;;;21.00;34.70;;;;;;8397115;28;19916;-43
2023/04/16 11:26:49;;;;;;;;;;;21.00;34.70;;;;;;8401787;28;19991;-43
2023/04/16 11:30:50;;;;;;;;;;;21.10;34.70;;;;;;8401947;28;20017;-43
2023/04/16 11:34:50;;;;;;;;;;;21.10;34.70;;;;;;8401919;28;19924;-43
2023/04/16 11:38:59;;;;;;;;;;;21.10;34.70;;;;;;8400942;28;19923;-42
2023/04/16 11:43:13;;;;;;;;;;;21.10;34.70;;;;;;8401412;28;19916;-43
2023/04/16 11:47:14;;;;;;;;;;;21.10;34.70;;;;;;8401109;28;19916;-43
2023/04/16 11:51:14;;;;;;;;;;;21.10;34.70;;;;;;8400875;28;19913;-43
2023/04/16 11:55:15;;;;;;;;;;;21.20;34.70;;;;;;8400694;28;19951;-43
2023/04/16 11:59:17;;;;;;;;;;;21.20;34.70;;;;;;8401035;28;19920;-43
2023/04/16 12:03:17;;;;;;;;;;;21.20;34.70;;;;;;8400155;28;19978;-44
2023/04/16 12:07:17;;;;;;;;;;;21.20;34.80;;;;;;8400477;28;20231;-43
2023/04/16 12:11:18;;;;;;;;;;;21.20;34.80;;;;;;8400474;28;20011;-43
2023/04/16 12:15:18;;;;;;;;;;;21.20;34.70;;;;;;8399800;28;20010;-43
2023/04/16 12:19:19;;;;;;;;;;;21.20;34.70;;;;;;8399990;28;20266;-43
2023/04/16 12:23:30;;;;;;;;;;;21.20;34.80;;;;;;8399931;28;20357;-43
2023/04/16 12:27:47;;;;;;;;;;;21.20;34.80;;;;;;8399574;28;19956;-43
2023/04/16 12:31:48;;;;;;;;;;;21.20;34.80;;;;;;8400014;28;19917;-44
2023/04/16 12:35:49;;;;;;;;;;;21.20;34.80;;;;;;8398252;28;19931;-42
2023/04/16 12:39:49;;;;;;;;;;;21.20;34.90;;;;;;8399736;28;19920;-43
2023/04/16 12:43:50;;;;;;;;;;;21.20;34.90;;;;;;8399342;28;19916;-43
2023/04/16 12:47:50;;;;;;;;;;;21.20;34.80;;;;;;8398991;28;20003;-43
2023/04/16 12:51:51;;;;;;;;;;;21.30;34.90;;;;;;8399412;28;19951;-43
2023/04/16 12:55:51;;;;;;;;;;;21.30;34.90;;;;;;8398834;28;19925;-43
2023/04/16 12:59:52;;;;;;;;;;;21.30;34.90;;;;;;8398189;28;19940;-43
2023/04/16 13:03:52;;;;;;;;;;;21.30;34.90;;;;;;8391524;28;19944;-44
2023/04/16 13:07:53;;;;;;;;;;;21.30;34.90;;;;;;8369397;28;19926;-44
2023/04/16 13:11:53;;;;;;;;;;;21.30;34.90;;;;;;8398009;28;19916;-44
2023/04/16 13:15:54;;;;;;;;;;;21.30;34.90;;;;;;8398119;28;19924;-44
2023/04/16 13:19:54;;;;;;;;;;;21.40;34.90;;;;;;8398173;28;19917;-43
2023/04/16 13:23:55;;;;;;;;;;;21.40;34.90;;;;;;8397587;28;19921;-43
2023/04/16 13:27:55;;;;;;;;;;;21.40;34.90;;;;;;8397364;28;20387;-43
2023/04/16 13:31:56;;;;;;;;;;;21.40;34.90;;;;;;8398234;28;19963;-44
2023/04/16 13:35:56;;;;;;;;;;;21.40;34.90;;;;;;8397195;28;20023;-44
2023/04/16 13:39:57;;;;;;;;;;;21.30;34.90;;;;;;8397621;28;19943;-43
2023/04/16 13:43:57;;;;;;;;;;;21.30;34.90;;;;;;8397422;28;20007;-44
2023/04/16 13:47:58;;;;;;;;;;;21.30;35.00;;;;;;8395816;28;19912;-44
2023/04/16 13:51:58;;;;;;;;;;;21.30;35.00;;;;;;8397505;28;19912;-44
2023/04/16 13:55:59;;;;;;;;;;;21.30;35.00;;;;;;8397149;28;19940;-43
2023/04/16 13:59:59;;;;;;;;;;;21.30;35.00;;;;;;8396551;28;19920;-44
2023/04/16 14:04:04;;;;;;;;;;;21.30;35.00;;;;;;8396781;28;20289;-43
2023/04/16 14:08:05;;;;;;;;;;;21.30;35.00;;;;;;8396788;28;20453;-43
2023/04/16 14:12:06;;;;;;;;;;;21.30;35.00;;;;;;8395866;28;19913;-43
2023/04/16 14:16:06;;;;;;;;;;;21.20;35.00;;;;;;8395912;28;19947;-43
2023/04/16 14:20:07;;;;;;;;;;;21.20;35.10;;;;;;8396326;28;19916;-43
2023/04/16 14:24:08;;;;;;;;;;;21.20;35.00;;;;;;8396054;28;19978;-43
2023/04/16 14:28:08;;;;;;;;;;;21.20;35.10;;;;;;8396220;28;19920;-44
2023/04/16 14:32:09;;;;;;;;;;;21.30;35.10;;;;;;8396103;28;20373;-44
2023/04/16 14:36:09;;;;;;;;;;;21.30;35.10;;;;;;8395423;28;19970;-44
2023/04/16 14:40:11;;;;;;;;;;;21.30;35.00;;;;;;8395940;28;19916;-44
2023/04/16 14:44:11;;;;;;;;;;;21.30;35.00;;;;;;8395731;28;20281;-43
2023/04/16 14:48:12;;;;;;;;;;;21.30;35.00;;;;;;8395087;28;19916;-43
2023/04/16 14:52:12;;;;;;;;;;;21.30;35.00;;;;;;8395861;28;20285;-43
2023/04/16 14:56:12;;;;;;;;;;;21.40;35.00;;;;;;8395434;28;19956;-43
2023/04/16 15:00:16;;;;;;;;;;;21.40;35.00;;;;;;8394594;28;19916;-44
2023/04/16 15:04:16;;;;;;;;;;;21.40;35.00;;;;;;8395599;28;19977;-44
2023/04/16 15:08:16;;;;;;;;;;;21.40;35.00;;;;;;8395480;28;20324;-43
2023/04/16 15:12:17;;;;;;;;;;;21.40;34.90;;;;;;8395033;28;20467;-44
2023/04/16 15:16:17;;;;;;;;;;;21.40;34.80;;;;;;8395059;28;19929;-44
2023/04/16 15:20:18;;;;;;;;;;;21.40;34.80;;;;;;8395088;28;19917;-45
2023/04/16 15:24:18;;;;;;;;;;;21.40;34.80;;;;;;8394567;28;19916;-44
2023/04/16 15:28:19;;;;;;;;;;;21.40;34.70;;;;;;8395526;28;19919;-44
2023/04/16 15:32:19;;;;;;;;;;;21.40;34.70;;;;;;8395031;28;19917;-44
2023/04/16 15:36:20;;;;;;;;;;;21.40;34.90;;;;;;8394448;28;20400;-44
2023/04/16 15:40:21;;;;;;;;;;;21.30;34.70;;;;;;8395152;28;19923;-44
2023/04/16 15:44:21;;;;;;;;;;;21.30;34.70;;;;;;8394845;28;19920;-44
2023/04/16 15:48:22;;;;;;;;;;;21.30;34.70;;;;;;8394487;28;19923;-44
2023/04/16 15:52:23;;;;;;;;;;;21.30;34.70;;;;;;8394478;28;20003;-44
2023/04/16 15:56:24;;;;;;;;;;;21.30;34.70;;;;;;8394464;28;20373;-44
2023/04/16 16:00:24;;;;;;;;;;;21.30;34.70;;;;;;8394042;28;19988;-45
2023/04/16 16:04:25;;;;;;;;;;;21.20;34.70;;;;;;8394260;28;20385;-44
2023/04/16 16:08:25;;;;;;;;;;;21.20;34.70;;;;;;8393583;28;19913;-44
2023/04/16 16:12:26;;;;;;;;;;;21.20;34.70;;;;;;8399580;28;20404;-44
2023/04/16 16:16:27;;;;;;;;;;;21.20;34.70;;;;;;8400231;28;19924;-43
2023/04/16 16:20:27;;;;;;;;;;;21.20;34.80;;;;;;8400135;28;20008;-44
2023/04/16 16:24:28;;;;;;;;;;;21.20;34.80;;;;;;8399692;28;20412;-44
2023/04/16 16:28:28;;;;;;;;;;;21.20;34.70;;;;;;8400432;28;20270;-44
2023/04/16 16:32:29;;;;;;;;;;;21.20;34.70;;;;;;8399693;28;20042;-44
2023/04/16 16:36:31;;;;;;;;;;;21.20;34.70;;;;;;8399126;28;20286;-44
2023/04/16 16:40:31;;;;;;;;;;;21.20;34.70;;;;;;8399601;28;19916;-44
2023/04/16 16:44:32;;;;;;;;;;;21.20;34.70;;;;;;8399573;28;19924;-44
2023/04/16 16:48:32;;;;;;;;;;;21.20;34.70;;;;;;8399273;28;19912;-44
2023/04/16 16:52:32;;;;;;;;;;;21.20;34.70;;;;;;8399397;28;19970;-45
2023/04/16 16:56:33;;;;;;;;;;;21.20;34.70;;;;;;8399136;28;19924;-44
2023/04/16 17:00:34;;;;;;;;;;;21.30;34.70;;;;;;8398537;28;20009;-44
2023/04/16 17:04:34;;;;;;;;;;;21.20;34.60;;;;;;8398811;28;19921;-44
2023/04/16 17:08:35;;;;;;;;;;;21.20;34.70;;;;;;8398866;28;20344;-44
2023/04/16 17:12:35;;;;;;;;;;;21.20;34.70;;;;;;8398162;28;19920;-44
2023/04/16 17:16:36;;;;;;;;;;;21.30;34.70;;;;;;8398511;28;20293;-44
2023/04/16 17:20:36;;;;;;;;;;;21.30;34.70;;;;;;8398001;28;19989;-44
2023/04/16 17:24:37;;;;;;;;;;;21.30;34.70;;;;;;8397624;28;19917;-44
2023/04/16 17:28:38;;;;;;;;;;;21.30;34.70;;;;;;8398281;28;19943;-44
2023/04/16 17:32:38;;;;;;;;;;;21.30;34.70;;;;;;8397505;28;19916;-43
2023/04/16 17:36:39;;;;;;;;;;;21.30;34.70;;;;;;8397514;28;19931;-44
2023/04/16 17:40:40;;;;;;;;;;;21.30;34.80;;;;;;8397722;28;19939;-43
2023/04/16 17:44:40;;;;;;;;;;;21.30;34.70;;;;;;8397143;28;20297;-44
2023/04/16 17:48:42;;;;;;;;;;;21.20;34.80;;;;;;8397668;28;19919;-44
2023/04/16 17:52:43;;;;;;;;;;;21.20;34.80;;;;;;8397285;28;19917;-43
2023/04/16 17:56:44;;;;;;;;;;;21.20;34.90;;;;;;8396580;28;19925;-44
2023/04/16 18:00:45;;;;;;;;;;;21.20;34.90;;;;;;8397188;28;19916;-45
2023/04/16 18:04:45;;;;;;;;;;;21.20;34.90;;;;;;8396744;28;19927;-43
2023/04/16 18:08:46;;;;;;;;;;;21.20;35.00;;;;;;8396532;28;19913;-44
2023/04/16 18:12:46;;;;;;;;;;;21.10;34.90;;;;;;8396802;28;19916;-44
2023/04/16 18:16:47;;;;;;;;;;;21.10;34.90;;;;;;8396191;28;19924;-44
2023/04/16 18:20:48;;;;;;;;;;;21.10;35.00;;;;;;8395773;28;20431;-44
2023/04/16 18:24:48;;;;;;;;;;;21.10;35.00;;;;;;8396102;28;19912;-44
2023/04/16 18:28:48;;;;;;;;;;;21.10;35.00;;;;;;8396499;28;19913;-44
2023/04/16 18:32:49;;;;;;;;;;;21.00;35.00;;;;;;8394826;28;20432;-44
2023/04/16 18:36:50;;;;;;;;;;;21.10;35.10;;;;;;8395617;28;19924;-45
2023/04/16 18:40:50;;;;;;;;;;;21.00;35.00;;;;;;8395919;28;19923;-44
2023/04/16 18:44:51;;;;;;;;;;;21.00;35.00;;;;;;8395292;28;19912;-43
2023/04/16 18:48:52;;;;;;;;;;;21.00;35.00;;;;;;8396224;28;20297;-45
2023/04/16 18:52:52;;;;;;;;;;;21.10;35.10;;;;;;8395532;28;20065;-44
2023/04/16 18:56:53;;;;;;;;;;;21.10;35.00;;;;;;8394985;28;19951;-45
2023/04/16 19:00:54;;;;;;;;;;;21.10;35.00;;;;;;8395381;28;19916;-44
2023/04/16 19:04:54;;;;;;;;;;;21.10;35.00;;;;;;8395497;28;19943;-45
2023/04/16 19:08:55;;;;;;;;;;;21.10;35.00;;;;;;8393896;28;19927;-44
2023/04/16 19:12:56;;;;;;;;;;;21.10;35.00;;;;;;8395441;28;20348;-44
2023/04/16 19:16:56;;;;;;;;;;;21.10;35.00;;;;;;8394748;28;19924;-45
2023/04/16 19:20:57;;;;;;;;;;;21.10;35.00;;;;;;8394475;28;19916;-45
2023/04/16 19:24:57;;;;;;;;;;;21.10;35.00;;;;;;8395004;28;20489;-44
2023/04/16 19:28:58;;;;;;;;;;;21.10;35.00;;;;;;8395080;28;19928;-45
2023/04/16 19:32:58;;;;;;;;;;;21.10;34.90;;;;;;8394444;28;20369;-45
2023/04/16 19:36:59;;;;;;;;;;;21.10;35.00;;;;;;8394641;28;19924;-45
2023/04/16 19:40:59;;;;;;;;;;;21.10;35.00;;;;;;8394903;28;19959;-44
2023/04/16 19:45:00;;;;;;;;;;;21.10;35.00;;;;;;8398333;28;19917;-46
2023/04/16 19:49:00;;;;;;;;;;;21.10;34.90;;;;;;8401256;28;20377;-45
2023/04/16 19:53:01;;;;;;;;;;;21.10;35.00;;;;;;8401328;28;19967;-45
2023/04/16 19:57:02;;;;;;;;;;;21.10;35.00;;;;;;8400453;28;19925;-44
2023/04/16 20:01:06;;;;;;;;;;;21.10;35.00;;;;;;8401108;28;19919;-44
2023/04/16 20:05:07;;;;;;;;;;;21.10;35.00;;;;;;8400591;28;19920;-45
2023/04/16 20:09:07;;;;;;;;;;;21.10;35.00;;;;;;8399896;28;19924;-44
2023/04/16 20:13:10;;;;;;;;;;;21.10;35.00;;;;;;8400336;28;19930;-46
2023/04/16 20:17:17;;;;;;;;;;;21.10;35.10;;;;;;8400226;28;19921;-44
2023/04/16 20:21:17;;;;;;;;;;;21.10;35.10;;;;;;8399489;28;19916;-45
2023/04/16 20:25:18;;;;;;;;;;;21.10;35.10;;;;;;8400185;28;20396;-45
2023/04/16 20:29:18;;;;;;;;;;;21.10;35.10;;;;;;8400026;28;19922;-45
2023/04/16 20:33:19;;;;;;;;;;;21.10;35.10;;;;;;8398816;28;19917;-44
2023/04/16 20:37:19;;;;;;;;;;;21.00;35.20;;;;;;8399323;28;20317;-44
2023/04/16 20:41:21;;;;;;;;;;;21.00;35.10;;;;;;8399473;28;19912;-45
2023/04/16 20:45:23;;;;;;;;;;;21.00;35.10;;;;;;8399016;28;19916;-45
2023/04/16 20:49:23;;;;;;;;;;;21.00;35.10;;;;;;8399367;28;20377;-44
2023/04/16 20:53:24;;;;;;;;;;;21.00;35.10;;;;;;8399231;28;19958;-44
2023/04/16 20:57:26;;;;;;;;;;;21.00;35.10;;;;;;8398086;28;19916;-44
2023/04/16 21:01:27;;;;;;;;;;;21.00;35.10;;;;;;8399488;28;19999;-45
2023/04/16 21:05:28;;;;;;;;;;;21.00;35.10;;;;;;8399162;28;20386;-46
2023/04/16 21:09:30;;;;;;;;;;;20.90;35.00;;;;;;8398161;28;19916;-44
2023/04/16 21:13:30;;;;;;;;;;;20.90;35.10;;;;;;8398383;28;20007;-45
2023/04/16 21:17:31;;;;;;;;;;;20.90;35.00;;;;;;8398342;28;19923;-43
2023/04/16 21:21:32;;;;;;;;;;;20.90;35.10;;;;;;8397667;28;19916;-44
2023/04/16 21:25:32;;;;;;;;;;;20.80;35.10;;;;;;8398469;28;19912;-44
2023/04/16 21:29:32;;;;;;;;;;;20.80;35.10;;;;;;8398202;28;20042;-44
2023/04/16 21:33:33;;;;;;;;;;;20.80;35.10;;;;;;8397363;28;19920;-44
2023/04/16 21:37:33;;;;;;;;;;;20.80;35.10;;;;;;8397708;28;20370;-44
2023/04/16 21:41:34;;;;;;;;;;;20.70;35.10;;;;;;8397508;28;19917;-44
2023/04/16 21:45:34;;;;;;;;;;;20.70;35.10;;;;;;8397164;28;19948;-45
2023/04/16 21:49:35;;;;;;;;;;;20.70;35.10;;;;;;8397612;28;19962;-45
2023/04/16 21:53:37;;;;;;;;;;;20.70;35.10;;;;;;8397332;28;20011;-45
2023/04/16 21:57:37;;;;;;;;;;;20.70;35.20;;;;;;8396526;28;19924;-45
2023/04/16 22:01:38;;;;;;;;;;;20.70;35.10;;;;;;8394746;28;19926;-44
2023/04/16 22:05:38;;;;;;;;;;;20.60;35.10;;;;;;8396700;28;19921;-42
2023/04/16 22:09:39;;;;;;;;;;;20.60;35.10;;;;;;8395978;28;19917;-43
2023/04/16 22:13:41;;;;;;;;;;;20.60;35.10;;;;;;8396567;28;19920;-45
2023/04/16 22:17:41;;;;;;;;;;;20.60;35.10;;;;;;8396059;28;19912;-44
2023/04/16 22:21:42;;;;;;;;;;;20.60;35.20;;;;;;8396382;28;19973;-45
2023/04/16 22:25:42;;;;;;;;;;;20.60;35.20;;;;;;8396718;28;19956;-45
2023/04/16 22:29:43;;;;;;;;;;;20.60;35.20;;;;;;8395692;28;19917;-45
2023/04/16 22:33:43;;;;;;;;;;;20.50;35.20;;;;;;8396173;28;20003;-45
2023/04/16 22:37:44;;;;;;;;;;;20.50;35.20;;;;;;8395868;28;19974;-44
2023/04/16 22:41:44;;;;;;;;;;;20.50;35.20;;;;;;8395384;28;19916;-43
2023/04/16 22:45:45;;;;;;;;;;;20.50;35.20;;;;;;8396412;28;19966;-44
2023/04/16 22:49:46;;;;;;;;;;;20.50;35.20;;;;;;8395529;28;19923;-45
2023/04/16 22:53:46;;;;;;;;;;;20.40;35.20;;;;;;8395140;28;19981;-45
2023/04/16 22:57:47;;;;;;;;;;;20.40;35.20;;;;;;8396075;28;19916;-45
2023/04/16 23:01:47;;;;;;;;;;;20.40;35.30;;;;;;8395320;28;19951;-44
2023/04/16 23:05:48;;;;;;;;;;;20.40;35.40;;;;;;8395048;28;19928;-45
2023/04/16 23:09:48;;;;;;;;;;;20.30;35.30;;;;;;8395724;28;20002;-45
2023/04/16 23:13:49;;;;;;;;;;;20.30;35.30;;;;;;8395205;28;19932;-45
2023/04/16 23:17:49;;;;;;;;;;;20.30;35.30;;;;;;8395495;28;19919;-45
2023/04/16 23:21:49;;;;;;;;;;;20.30;35.30;;;;;;8406231;28;19925;-45